sensor_id;sensor_type;location;lat;lon;timestamp;pressure;altitude;pressure_sealevel;temperature;humidity
22938;BME280;11634;42.734;23.298;2023-02-21T00:02:37;95751.47;;;5.37;100.00
22938;BME280;11634;42.734;23.298;2023-02-21T00:05:21;95751.38;;;5.25;100.00
22938;BME280;11634;42.734;23.298;2023-02-21T00:08:06;95745.94;;;5.15;100.00
22938;BME280;11634;42.734;23.298;2023-02-21T00:10:50;95753.69;;;5.15;100.00
22938;BME280;11634;42.734;23.298;2023-02-21T00:13:36;95751.28;;;5.12;100.00
22938;BME280;11634;42.734;23.298;2023-02-21T00:16:20;95757.56;;;5.22;100.00
22938;BME280;11634;42.734;23.298;2023-02-21T00:19:04;95743.72;;;5.09;100.00
22938;BME280;11634;42.734;23.298;2023-02-21T00:21:49;95744.22;;;5.16;100.00
22938;BME280;11634;42.734;23.298;2023-02-21T00:24:33;95708.91;;;5.02;100.00
22938;BME280;11634;42.734;23.298;2023-02-21T00:27:20;95747.69;;;5.15;100.00
22938;BME280;11634;42.734;23.298;2023-02-21T00:30:05;95697.13;;;4.98;100.00
22938;BME280;11634;42.734;23.298;2023-02-21T00:32:50;95734.00;;;5.14;100.00
22938;BME280;11634;42.734;23.298;2023-02-21T00:35:35;95730.38;;;5.17;100.00
22938;BME280;11634;42.734;23.298;2023-02-21T00:38:19;95724.97;;;5.07;100.00
22938;BME280;11634;42.734;23.298;2023-02-21T00:41:04;95707.06;;;5.04;100.00
22938;BME280;11634;42.734;23.298;2023-02-21T00:43:48;95729.94;;;5.10;100.00
22938;BME280;11634;42.734;23.298;2023-02-21T00:46:32;95731.31;;;5.16;100.00
22938;BME280;11634;42.734;23.298;2023-02-21T00:49:19;95726.69;;;5.21;100.00
22938;BME280;11634;42.734;23.298;2023-02-21T00:52:03;95705.72;;;5.13;100.00
22938;BME280;11634;42.734;23.298;2023-02-21T00:54:48;95713.34;;;5.28;100.00
22938;BME280;11634;42.734;23.298;2023-02-21T00:57:51;95718.59;;;5.27;100.00
22938;BME280;11634;42.734;23.298;2023-02-21T01:00:35;95695.84;;;5.33;100.00
22938;BME280;11634;42.734;23.298;2023-02-21T01:03:19;95678.34;;;5.24;100.00
22938;BME280;11634;42.734;23.298;2023-02-21T01:06:08;95684.34;;;5.39;100.00
22938;BME280;11634;42.734;23.298;2023-02-21T01:08:52;95683.47;;;5.52;100.00
22938;BME280;11634;42.734;23.298;2023-02-21T01:11:36;95676.94;;;5.60;100.00
22938;BME280;11634;42.734;23.298;2023-02-21T01:14:20;95674.31;;;5.74;100.00
22938;BME280;11634;42.734;23.298;2023-02-21T01:17:04;95681.44;;;5.85;100.00
22938;BME280;11634;42.734;23.298;2023-02-21T01:19:49;95667.97;;;5.80;100.00
22938;BME280;11634;42.734;23.298;2023-02-21T01:22:33;95654.25;;;5.79;100.00
22938;BME280;11634;42.734;23.298;2023-02-21T01:25:19;95654.16;;;5.81;100.00
22938;BME280;11634;42.734;23.298;2023-02-21T01:28:03;95663.78;;;5.91;100.00
22938;BME280;11634;42.734;23.298;2023-02-21T01:30:48;95666.38;;;5.91;100.00
22938;BME280;11634;42.734;23.298;2023-02-21T01:33:38;95656.97;;;5.90;100.00
22938;BME280;11634;42.734;23.298;2023-02-21T01:36:22;95650.97;;;5.90;100.00
22938;BME280;11634;42.734;23.298;2023-02-21T01:39:06;95663.41;;;5.97;100.00
22938;BME280;11634;42.734;23.298;2023-02-21T01:41:51;95655.13;;;5.92;100.00
22938;BME280;11634;42.734;23.298;2023-02-21T01:47:19;95654.97;;;6.07;100.00
22938;BME280;11634;42.734;23.298;2023-02-21T01:52:58;95638.03;;;6.03;100.00
22938;BME280;11634;42.734;23.298;2023-02-21T01:55:43;95641.88;;;6.10;100.00
22938;BME280;11634;42.734;23.298;2023-02-21T01:58:29;95636.72;;;6.10;100.00
22938;BME280;11634;42.734;23.298;2023-02-21T02:02:08;95622.81;;;5.99;100.00
22938;BME280;11634;42.734;23.298;2023-02-21T02:04:26;95623.81;;;5.97;100.00
22938;BME280;11634;42.734;23.298;2023-02-21T02:07:10;95632.94;;;6.02;100.00
22938;BME280;11634;42.734;23.298;2023-02-21T02:09:54;95630.06;;;6.06;100.00
22938;BME280;11634;42.734;23.298;2023-02-21T02:24:16;95603.66;;;5.63;100.00
22938;BME280;11634;42.734;23.298;2023-02-21T02:26:50;95619.53;;;5.69;100.00
22938;BME280;11634;42.734;23.298;2023-02-21T02:30:00;95616.34;;;5.66;100.00
22938;BME280;11634;42.734;23.298;2023-02-21T02:37:51;95611.56;;;5.60;100.00
22938;BME280;11634;42.734;23.298;2023-02-21T02:40:36;95624.28;;;5.63;100.00
22938;BME280;11634;42.734;23.298;2023-02-21T02:45:46;95601.56;;;5.68;100.00
22938;BME280;11634;42.734;23.298;2023-02-21T02:48:54;95541.38;;;5.41;100.00
22938;BME280;11634;42.734;23.298;2023-02-21T02:51:13;95614.31;;;5.85;100.00
22938;BME280;11634;42.734;23.298;2023-02-21T02:53:40;95610.25;;;5.81;100.00
22938;BME280;11634;42.734;23.298;2023-02-21T02:56:08;95601.38;;;5.71;100.00
22938;BME280;11634;42.734;23.298;2023-02-21T02:58:55;95608.38;;;5.83;100.00
22938;BME280;11634;42.734;23.298;2023-02-21T03:04:24;95600.81;;;6.06;100.00
22938;BME280;11634;42.734;23.298;2023-02-21T03:13:11;95600.94;;;6.17;100.00
22938;BME280;11634;42.734;23.298;2023-02-21T03:18:45;95601.25;;;6.12;100.00
22938;BME280;11634;42.734;23.298;2023-02-21T03:21:22;95595.53;;;6.07;100.00
22938;BME280;11634;42.734;23.298;2023-02-21T03:23:51;95594.38;;;5.99;100.00
22938;BME280;11634;42.734;23.298;2023-02-21T03:26:19;95589.09;;;5.88;100.00
22938;BME280;11634;42.734;23.298;2023-02-21T03:28:49;95582.97;;;5.77;100.00
22938;BME280;11634;42.734;23.298;2023-02-21T03:31:18;95591.06;;;5.71;100.00
22938;BME280;11634;42.734;23.298;2023-02-21T03:33:46;95587.75;;;5.69;100.00
22938;BME280;11634;42.734;23.298;2023-02-21T03:36:13;95588.88;;;5.65;100.00
22938;BME280;11634;42.734;23.298;2023-02-21T03:38:39;95591.25;;;5.68;100.00
22938;BME280;11634;42.734;23.298;2023-02-21T03:41:05;95586.94;;;5.68;100.00
22938;BME280;11634;42.734;23.298;2023-02-21T03:43:34;95600.66;;;5.69;100.00
22938;BME280;11634;42.734;23.298;2023-02-21T03:46:02;95589.69;;;5.65;100.00
22938;BME280;11634;42.734;23.298;2023-02-21T03:48:27;95604.94;;;5.56;100.00
22938;BME280;11634;42.734;23.298;2023-02-21T03:50:54;95606.44;;;5.46;100.00
22938;BME280;11634;42.734;23.298;2023-02-21T03:53:22;95576.66;;;5.14;100.00
22938;BME280;11634;42.734;23.298;2023-02-21T03:55:48;95589.25;;;5.19;100.00
22938;BME280;11634;42.734;23.298;2023-02-21T03:58:19;95604.06;;;5.15;100.00
22938;BME280;11634;42.734;23.298;2023-02-21T04:00:48;95616.16;;;5.15;100.00
22938;BME280;11634;42.734;23.298;2023-02-21T04:03:17;95603.00;;;4.91;100.00
22938;BME280;11634;42.734;23.298;2023-02-21T04:05:49;95613.13;;;4.94;100.00
22938;BME280;11634;42.734;23.298;2023-02-21T04:08:16;95609.34;;;4.86;100.00
22938;BME280;11634;42.734;23.298;2023-02-21T04:10:41;95590.56;;;4.84;100.00
22938;BME280;11634;42.734;23.298;2023-02-21T04:13:07;95604.91;;;5.02;100.00
22938;BME280;11634;42.734;23.298;2023-02-21T04:15:39;95610.06;;;5.02;100.00
22938;BME280;11634;42.734;23.298;2023-02-21T04:18:05;95610.19;;;5.14;100.00
22938;BME280;11634;42.734;23.298;2023-02-21T04:20:31;95611.91;;;5.28;100.00
22938;BME280;11634;42.734;23.298;2023-02-21T04:22:58;95617.41;;;5.36;100.00
22938;BME280;11634;42.734;23.298;2023-02-21T04:25:27;95636.13;;;5.39;100.00
22938;BME280;11634;42.734;23.298;2023-02-21T04:27:58;95625.91;;;5.38;100.00
22938;BME280;11634;42.734;23.298;2023-02-21T04:30:24;95621.94;;;5.32;100.00
22938;BME280;11634;42.734;23.298;2023-02-21T04:32:50;95618.97;;;5.38;100.00
22938;BME280;11634;42.734;23.298;2023-02-21T04:35:16;95648.47;;;5.48;100.00
22938;BME280;11634;42.734;23.298;2023-02-21T04:37:42;95609.09;;;5.44;100.00
22938;BME280;11634;42.734;23.298;2023-02-21T04:40:11;95639.38;;;5.69;100.00
22938;BME280;11634;42.734;23.298;2023-02-21T04:42:36;95618.19;;;5.64;100.00
22938;BME280;11634;42.734;23.298;2023-02-21T04:45:02;95630.53;;;5.73;100.00
22938;BME280;11634;42.734;23.298;2023-02-21T04:47:28;95634.66;;;5.89;100.00
22938;BME280;11634;42.734;23.298;2023-02-21T04:49:53;95628.94;;;5.84;100.00
22938;BME280;11634;42.734;23.298;2023-02-21T04:52:19;95640.88;;;5.99;100.00
22938;BME280;11634;42.734;23.298;2023-02-21T04:54:45;95618.09;;;5.79;100.00
22938;BME280;11634;42.734;23.298;2023-02-21T04:57:11;95601.97;;;5.62;100.00
22938;BME280;11634;42.734;23.298;2023-02-21T04:59:37;95619.13;;;5.63;100.00
22938;BME280;11634;42.734;23.298;2023-02-21T05:02:02;95605.53;;;5.47;100.00
22938;BME280;11634;42.734;23.298;2023-02-21T05:04:30;95618.34;;;5.35;100.00
22938;BME280;11634;42.734;23.298;2023-02-21T05:06:58;95617.25;;;5.25;100.00
22938;BME280;11634;42.734;23.298;2023-02-21T05:09:24;95599.41;;;5.08;100.00
22938;BME280;11634;42.734;23.298;2023-02-21T05:11:49;95600.59;;;5.16;100.00
22938;BME280;11634;42.734;23.298;2023-02-21T05:14:15;95620.66;;;5.25;100.00
22938;BME280;11634;42.734;23.298;2023-02-21T05:16:43;95609.50;;;5.25;100.00
22938;BME280;11634;42.734;23.298;2023-02-21T05:19:09;95603.72;;;5.21;100.00
22938;BME280;11634;42.734;23.298;2023-02-21T05:21:35;95607.50;;;5.16;100.00
22938;BME280;11634;42.734;23.298;2023-02-21T05:24:06;95606.50;;;5.18;100.00
22938;BME280;11634;42.734;23.298;2023-02-21T05:26:35;95600.13;;;5.10;100.00
22938;BME280;11634;42.734;23.298;2023-02-21T05:29:02;95597.63;;;5.08;100.00
22938;BME280;11634;42.734;23.298;2023-02-21T05:31:28;95613.75;;;5.26;100.00
22938;BME280;11634;42.734;23.298;2023-02-21T05:33:54;95588.69;;;5.14;100.00
22938;BME280;11634;42.734;23.298;2023-02-21T05:36:19;95584.38;;;5.14;100.00
22938;BME280;11634;42.734;23.298;2023-02-21T05:38:48;95587.88;;;5.13;100.00
22938;BME280;11634;42.734;23.298;2023-02-21T05:41:15;95594.78;;;5.27;100.00
22938;BME280;11634;42.734;23.298;2023-02-21T05:43:45;95617.25;;;5.39;100.00
22938;BME280;11634;42.734;23.298;2023-02-21T05:46:20;95611.91;;;5.28;100.00
22938;BME280;11634;42.734;23.298;2023-02-21T05:48:46;95617.25;;;5.25;100.00
22938;BME280;11634;42.734;23.298;2023-02-21T05:51:13;95607.88;;;4.96;100.00
22938;BME280;11634;42.734;23.298;2023-02-21T05:53:39;95621.97;;;5.18;100.00
22938;BME280;11634;42.734;23.298;2023-02-21T05:56:05;95620.75;;;4.96;100.00
22938;BME280;11634;42.734;23.298;2023-02-21T05:58:31;95623.59;;;5.19;100.00
22938;BME280;11634;42.734;23.298;2023-02-21T06:00:56;95631.00;;;5.25;100.00
22938;BME280;11634;42.734;23.298;2023-02-21T06:03:22;95607.94;;;5.36;100.00
22938;BME280;11634;42.734;23.298;2023-02-21T06:05:48;95630.88;;;5.67;100.00
22938;BME280;11634;42.734;23.298;2023-02-21T06:08:13;95634.75;;;5.88;100.00
22938;BME280;11634;42.734;23.298;2023-02-21T06:10:39;95634.09;;;5.98;100.00
22938;BME280;11634;42.734;23.298;2023-02-21T06:13:04;95650.09;;;6.03;100.00
22938;BME280;11634;42.734;23.298;2023-02-21T06:15:30;95631.09;;;6.04;100.00
22938;BME280;11634;42.734;23.298;2023-02-21T06:17:55;95631.53;;;6.10;100.00
22938;BME280;11634;42.734;23.298;2023-02-21T06:20:21;95640.84;;;6.13;100.00
22938;BME280;11634;42.734;23.298;2023-02-21T06:22:47;95642.53;;;6.26;100.00
22938;BME280;11634;42.734;23.298;2023-02-21T06:25:14;95628.59;;;6.41;100.00
22938;BME280;11634;42.734;23.298;2023-02-21T06:27:39;95597.47;;;6.43;100.00
22938;BME280;11634;42.734;23.298;2023-02-21T06:30:06;95644.56;;;6.72;100.00
22938;BME280;11634;42.734;23.298;2023-02-21T06:32:32;95636.00;;;6.84;100.00
22938;BME280;11634;42.734;23.298;2023-02-21T06:34:57;95651.56;;;7.09;100.00
22938;BME280;11634;42.734;23.298;2023-02-21T06:37:23;95645.84;;;7.16;99.49
22938;BME280;11634;42.734;23.298;2023-02-21T06:39:49;95633.91;;;7.26;96.10
22938;BME280;11634;42.734;23.298;2023-02-21T06:42:15;95645.41;;;7.35;95.42
22938;BME280;11634;42.734;23.298;2023-02-21T06:44:43;95635.81;;;7.60;92.18
22938;BME280;11634;42.734;23.298;2023-02-21T06:47:09;95632.09;;;7.64;91.15
22938;BME280;11634;42.734;23.298;2023-02-21T06:49:35;95643.16;;;8.02;88.95
22938;BME280;11634;42.734;23.298;2023-02-21T06:52:00;95633.19;;;8.08;86.12
22938;BME280;11634;42.734;23.298;2023-02-21T06:54:26;95640.19;;;8.18;85.95
22938;BME280;11634;42.734;23.298;2023-02-21T06:56:52;95642.53;;;8.34;84.71
22938;BME280;11634;42.734;23.298;2023-02-21T06:59:17;95645.19;;;8.21;84.10
22938;BME280;11634;42.734;23.298;2023-02-21T07:01:43;95646.22;;;8.42;84.22
22938;BME280;11634;42.734;23.298;2023-02-21T07:04:09;95617.53;;;8.33;83.02
22938;BME280;11634;42.734;23.298;2023-02-21T07:06:34;95643.81;;;8.63;83.62
22938;BME280;11634;42.734;23.298;2023-02-21T07:09:00;95643.28;;;8.81;82.83
22938;BME280;11634;42.734;23.298;2023-02-21T07:11:26;95633.63;;;8.94;81.95
22938;BME280;11634;42.734;23.298;2023-02-21T07:13:53;95640.34;;;8.85;82.50
22938;BME280;11634;42.734;23.298;2023-02-21T07:16:19;95646.34;;;8.86;82.63
22938;BME280;11634;42.734;23.298;2023-02-21T07:18:45;95638.25;;;9.01;82.68
22938;BME280;11634;42.734;23.298;2023-02-21T07:21:12;95618.94;;;9.16;81.04
22938;BME280;11634;42.734;23.298;2023-02-21T07:23:38;95625.78;;;9.50;77.45
22938;BME280;11634;42.734;23.298;2023-02-21T07:26:04;95604.28;;;9.48;75.41
22938;BME280;11634;42.734;23.298;2023-02-21T07:28:30;95614.31;;;9.52;75.22
22938;BME280;11634;42.734;23.298;2023-02-21T07:30:55;95630.97;;;9.50;73.94
22938;BME280;11634;42.734;23.298;2023-02-21T07:33:21;95619.25;;;9.44;74.53
22938;BME280;11634;42.734;23.298;2023-02-21T07:35:47;95578.91;;;9.19;74.50
22938;BME280;11634;42.734;23.298;2023-02-21T07:38:26;95604.78;;;9.42;75.04
22938;BME280;11634;42.734;23.298;2023-02-21T07:40:54;95594.59;;;9.28;74.66
22938;BME280;11634;42.734;23.298;2023-02-21T07:43:20;95602.97;;;9.42;74.72
22938;BME280;11634;42.734;23.298;2023-02-21T07:45:46;95589.75;;;9.34;74.94
22938;BME280;11634;42.734;23.298;2023-02-21T07:48:11;95598.72;;;9.52;74.08
22938;BME280;11634;42.734;23.298;2023-02-21T07:50:40;95595.38;;;9.83;71.85
22938;BME280;11634;42.734;23.298;2023-02-21T07:53:06;95592.75;;;10.05;70.73
22938;BME280;11634;42.734;23.298;2023-02-21T07:55:32;95593.03;;;10.22;69.91
22938;BME280;11634;42.734;23.298;2023-02-21T07:57:58;95592.31;;;10.31;68.62
22938;BME280;11634;42.734;23.298;2023-02-21T08:00:24;95589.47;;;10.34;68.30
22938;BME280;11634;42.734;23.298;2023-02-21T08:02:50;95587.50;;;10.47;67.92
22938;BME280;11634;42.734;23.298;2023-02-21T08:05:18;95576.66;;;10.62;67.24
22938;BME280;11634;42.734;23.298;2023-02-21T08:07:43;95575.19;;;10.90;66.46
22938;BME280;11634;42.734;23.298;2023-02-21T08:10:10;95584.13;;;11.46;64.89
22938;BME280;11634;42.734;23.298;2023-02-21T08:12:36;95570.84;;;11.98;62.09
22938;BME280;11634;42.734;23.298;2023-02-21T08:15:01;95561.63;;;11.94;61.27
22938;BME280;11634;42.734;23.298;2023-02-21T08:17:29;95569.66;;;12.21;60.74
22938;BME280;11634;42.734;23.298;2023-02-21T08:19:54;95566.91;;;12.51;60.02
22938;BME280;11634;42.734;23.298;2023-02-21T08:22:20;95561.91;;;12.95;59.02
22938;BME280;11634;42.734;23.298;2023-02-21T08:24:49;95567.25;;;13.12;57.41
22938;BME280;11634;42.734;23.298;2023-02-21T08:27:15;95566.41;;;13.57;56.54
22938;BME280;11634;42.734;23.298;2023-02-21T08:29:40;95562.09;;;13.66;55.88
22938;BME280;11634;42.734;23.298;2023-02-21T08:32:06;95558.94;;;13.62;56.38
22938;BME280;11634;42.734;23.298;2023-02-21T08:34:33;95562.97;;;13.83;55.55
22938;BME280;11634;42.734;23.298;2023-02-21T08:36:58;95557.75;;;14.27;54.31
22938;BME280;11634;42.734;23.298;2023-02-21T08:39:24;95554.81;;;14.65;53.79
22938;BME280;11634;42.734;23.298;2023-02-21T08:41:54;95555.69;;;14.91;52.64
22938;BME280;11634;42.734;23.298;2023-02-21T08:44:21;95551.69;;;14.00;53.93
22938;BME280;11634;42.734;23.298;2023-02-21T08:46:47;95558.53;;;13.67;54.20
22938;BME280;11634;42.734;23.298;2023-02-21T08:49:13;95549.38;;;13.70;54.51
22938;BME280;11634;42.734;23.298;2023-02-21T08:51:39;95546.66;;;13.89;54.08
22938;BME280;11634;42.734;23.298;2023-02-21T08:54:05;95550.22;;;13.98;53.59
22938;BME280;11634;42.734;23.298;2023-02-21T08:56:32;95554.00;;;14.13;53.19
22938;BME280;11634;42.734;23.298;2023-02-21T08:58:58;95551.81;;;13.81;54.04
22938;BME280;11634;42.734;23.298;2023-02-21T09:01:30;95539.88;;;13.07;55.83
22938;BME280;11634;42.734;23.298;2023-02-21T09:03:55;95543.53;;;13.23;55.97
22938;BME280;11634;42.734;23.298;2023-02-21T09:06:21;95545.88;;;13.26;55.64
22938;BME280;11634;42.734;23.298;2023-02-21T09:08:47;95556.31;;;13.26;55.37
22938;BME280;11634;42.734;23.298;2023-02-21T09:11:12;95547.19;;;13.39;54.94
22938;BME280;11634;42.734;23.298;2023-02-21T09:13:38;95551.69;;;13.83;53.83
22938;BME280;11634;42.734;23.298;2023-02-21T09:16:04;95543.16;;;14.25;52.36
22938;BME280;11634;42.734;23.298;2023-02-21T09:18:30;95536.06;;;14.35;51.77
22938;BME280;11634;42.734;23.298;2023-02-21T09:20:57;95532.69;;;14.42;51.67
22938;BME280;11634;42.734;23.298;2023-02-21T09:23:28;95529.31;;;14.50;51.59
22938;BME280;11634;42.734;23.298;2023-02-21T09:25:54;95502.16;;;14.51;50.99
22938;BME280;11634;42.734;23.298;2023-02-21T09:28:20;95514.31;;;14.77;50.05
22938;BME280;11634;42.734;23.298;2023-02-21T09:30:47;95502.38;;;14.82;48.18
22938;BME280;11634;42.734;23.298;2023-02-21T09:33:13;95512.00;;;14.99;49.26
22938;BME280;11634;42.734;23.298;2023-02-21T09:35:39;95515.63;;;14.81;50.56
22938;BME280;11634;42.734;23.298;2023-02-21T09:38:07;95524.84;;;14.85;50.10
22938;BME280;11634;42.734;23.298;2023-02-21T09:40:49;95510.69;;;15.21;49.57
22938;BME280;11634;42.734;23.298;2023-02-21T09:43:21;95515.13;;;15.03;49.31
22938;BME280;11634;42.734;23.298;2023-02-21T09:45:53;95508.03;;;15.46;49.08
22938;BME280;11634;42.734;23.298;2023-02-21T09:48:21;95503.69;;;15.70;48.15
22938;BME280;11634;42.734;23.298;2023-02-21T09:50:53;95490.63;;;15.86;48.00
22938;BME280;11634;42.734;23.298;2023-02-21T09:53:27;95482.53;;;15.72;46.14
22938;BME280;11634;42.734;23.298;2023-02-21T09:55:57;95444.53;;;15.84;46.64
22938;BME280;11634;42.734;23.298;2023-02-21T09:58:24;95468.03;;;16.17;43.40
22938;BME280;11634;42.734;23.298;2023-02-21T10:00:51;95472.19;;;16.35;41.85
22938;BME280;11634;42.734;23.298;2023-02-21T10:03:44;95466.44;;;16.47;41.14
22938;BME280;11634;42.734;23.298;2023-02-21T10:15:14;95466.28;;;16.65;39.86
22938;BME280;11634;42.734;23.298;2023-02-21T10:17:59;95453.59;;;16.76;39.77
22938;BME280;11634;42.734;23.298;2023-02-21T10:20:51;95447.69;;;16.90;39.26
22938;BME280;11634;42.734;23.298;2023-02-21T10:23:40;95447.53;;;16.84;40.19
22938;BME280;11634;42.734;23.298;2023-02-21T10:26:11;95434.06;;;16.79;39.85
22938;BME280;11634;42.734;23.298;2023-02-21T10:28:38;95409.09;;;16.75;39.39
22938;BME280;11634;42.734;23.298;2023-02-21T10:33:53;95438.75;;;17.23;38.93
22938;BME280;11634;42.734;23.298;2023-02-21T10:36:37;95445.19;;;16.97;39.10
22938;BME280;11634;42.734;23.298;2023-02-21T10:39:20;95437.44;;;17.11;39.37
22938;BME280;11634;42.734;23.298;2023-02-21T10:41:50;95382.88;;;17.05;39.07
22938;BME280;11634;42.734;23.298;2023-02-21T10:44:21;95422.97;;;17.15;39.19
22938;BME280;11634;42.734;23.298;2023-02-21T10:47:28;95409.13;;;17.21;39.15
22938;BME280;11634;42.734;23.298;2023-02-21T10:50:13;95411.31;;;17.09;39.04
22938;BME280;11634;42.734;23.298;2023-02-21T10:52:50;95406.25;;;17.00;38.86
22938;BME280;11634;42.734;23.298;2023-02-21T10:55:17;95390.06;;;17.27;39.43
22938;BME280;11634;42.734;23.298;2023-02-21T10:57:45;95389.16;;;17.42;39.30
22938;BME280;11634;42.734;23.298;2023-02-21T11:00:38;95382.47;;;17.32;39.90
22938;BME280;11634;42.734;23.298;2023-02-21T11:03:11;95375.78;;;17.52;39.77
22938;BME280;11634;42.734;23.298;2023-02-21T11:05:50;95381.09;;;17.44;39.30
22938;BME280;11634;42.734;23.298;2023-02-21T11:08:37;95371.00;;;17.55;38.48
22938;BME280;11634;42.734;23.298;2023-02-21T11:11:05;95364.56;;;17.57;38.60
22938;BME280;11634;42.734;23.298;2023-02-21T11:13:31;95353.25;;;17.49;39.03
22938;BME280;11634;42.734;23.298;2023-02-21T11:16:30;95370.84;;;17.79;38.98
22938;BME280;11634;42.734;23.298;2023-02-21T11:19:06;95352.38;;;17.64;38.47
22938;BME280;11634;42.734;23.298;2023-02-21T11:21:32;95368.44;;;17.69;38.05
22938;BME280;11634;42.734;23.298;2023-02-21T11:24:01;95365.47;;;17.95;37.85
22938;BME280;11634;42.734;23.298;2023-02-21T11:26:30;95326.84;;;17.87;36.85
22938;BME280;11634;42.734;23.298;2023-02-21T11:29:12;95347.91;;;18.09;37.03
22938;BME280;11634;42.734;23.298;2023-02-21T11:31:39;95308.25;;;17.89;37.74
22938;BME280;11634;42.734;23.298;2023-02-21T11:34:07;95331.34;;;18.01;37.98
22938;BME280;11634;42.734;23.298;2023-02-21T11:36:44;95339.75;;;17.97;38.01
22938;BME280;11634;42.734;23.298;2023-02-21T11:39:17;95324.91;;;18.26;36.69
22938;BME280;11634;42.734;23.298;2023-02-21T11:42:03;95309.00;;;18.11;36.66
22938;BME280;11634;42.734;23.298;2023-02-21T11:47:20;95315.53;;;18.23;36.88
22938;BME280;11634;42.734;23.298;2023-02-21T11:55:01;95286.50;;;17.87;37.43
22938;BME280;11634;42.734;23.298;2023-02-21T12:01:04;95278.72;;;17.93;38.05
22938;BME280;11634;42.734;23.298;2023-02-21T12:09:09;95273.03;;;18.04;38.47
22938;BME280;11634;42.734;23.298;2023-02-21T12:11:50;95273.84;;;18.27;38.21
22938;BME280;11634;42.734;23.298;2023-02-21T12:30:58;95233.94;;;18.44;37.62
22938;BME280;11634;42.734;23.298;2023-02-21T12:37:17;95227.09;;;18.64;37.34
22938;BME280;11634;42.734;23.298;2023-02-21T12:48:03;95218.94;;;18.45;36.74
22938;BME280;11634;42.734;23.298;2023-02-21T12:50:48;95217.22;;;18.52;37.27
22938;BME280;11634;42.734;23.298;2023-02-21T12:53:19;95206.09;;;18.56;37.29
22938;BME280;11634;42.734;23.298;2023-02-21T12:56:07;95215.00;;;18.69;37.03
22938;BME280;11634;42.734;23.298;2023-02-21T12:58:55;95191.19;;;18.63;36.59
22938;BME280;11634;42.734;23.298;2023-02-21T13:01:33;95202.47;;;18.71;36.77
22938;BME280;11634;42.734;23.298;2023-02-21T13:07:10;95189.56;;;18.62;36.47
22938;BME280;11634;42.734;23.298;2023-02-21T13:09:50;95202.47;;;18.57;36.38
22938;BME280;11634;42.734;23.298;2023-02-21T13:12:22;95210.44;;;18.78;36.78
22938;BME280;11634;42.734;23.298;2023-02-21T13:15:16;95203.47;;;18.70;37.67
22938;BME280;11634;42.734;23.298;2023-02-21T13:17:49;95183.41;;;18.55;37.66
22938;BME280;11634;42.734;23.298;2023-02-21T13:20:43;95182.44;;;18.77;37.39
22938;BME280;11634;42.734;23.298;2023-02-21T13:29:47;95168.72;;;18.67;35.56
22938;BME280;11634;42.734;23.298;2023-02-21T13:32:18;95188.25;;;18.87;35.45
22938;BME280;11634;42.734;23.298;2023-02-21T13:37:22;95181.72;;;19.04;35.67
22938;BME280;11634;42.734;23.298;2023-02-21T13:39:52;95177.19;;;19.12;36.10
22938;BME280;11634;42.734;23.298;2023-02-21T13:42:22;95177.88;;;19.21;36.50
22938;BME280;11634;42.734;23.298;2023-02-21T13:45:05;95175.16;;;19.14;36.47
22938;BME280;11634;42.734;23.298;2023-02-21T13:53:28;95159.59;;;19.40;35.52
22938;BME280;11634;42.734;23.298;2023-02-21T13:58:41;95164.03;;;19.19;34.69
22938;BME280;11634;42.734;23.298;2023-02-21T14:03:50;95151.22;;;19.16;34.81
22938;BME280;11634;42.734;23.298;2023-02-21T14:06:36;95161.84;;;19.22;34.18
22938;BME280;11634;42.734;23.298;2023-02-21T14:09:05;95151.81;;;19.11;34.57
22938;BME280;11634;42.734;23.298;2023-02-21T14:11:37;95155.09;;;18.99;34.47
22938;BME280;11634;42.734;23.298;2023-02-21T14:14:26;95161.28;;;19.06;34.65
22938;BME280;11634;42.734;23.298;2023-02-21T14:17:01;95157.34;;;19.02;34.76
22938;BME280;11634;42.734;23.298;2023-02-21T14:19:49;95119.75;;;18.79;34.26
22938;BME280;11634;42.734;23.298;2023-02-21T14:22:24;95149.81;;;18.99;34.66
22938;BME280;11634;42.734;23.298;2023-02-21T14:25:06;95166.84;;;18.96;34.17
22938;BME280;11634;42.734;23.298;2023-02-21T14:27:49;95150.03;;;18.83;34.39
22938;BME280;11634;42.734;23.298;2023-02-21T14:30:27;95148.22;;;18.83;34.45
22938;BME280;11634;42.734;23.298;2023-02-21T14:33:21;95139.41;;;18.76;34.59
22938;BME280;11634;42.734;23.298;2023-02-21T14:35:56;95127.06;;;18.77;34.18
22938;BME280;11634;42.734;23.298;2023-02-21T14:38:27;95144.09;;;18.95;34.71
22938;BME280;11634;42.734;23.298;2023-02-21T14:43:57;95140.06;;;18.78;34.34
22938;BME280;11634;42.734;23.298;2023-02-21T14:46:59;95138.41;;;18.77;34.39
22938;BME280;11634;42.734;23.298;2023-02-21T14:55:35;95139.91;;;18.65;35.04
22938;BME280;11634;42.734;23.298;2023-02-21T15:07:27;95127.09;;;18.48;34.97
22938;BME280;11634;42.734;23.298;2023-02-21T15:12:54;95132.69;;;18.39;34.96
22938;BME280;11634;42.734;23.298;2023-02-21T15:15:28;95127.34;;;18.32;35.21
22938;BME280;11634;42.734;23.298;2023-02-21T15:18:06;95132.16;;;18.29;35.08
22938;BME280;11634;42.734;23.298;2023-02-21T15:20:40;95111.06;;;18.14;34.89
22938;BME280;11634;42.734;23.298;2023-02-21T15:25:35;95119.78;;;18.01;35.25
22938;BME280;11634;42.734;23.298;2023-02-21T15:28:03;95115.97;;;18.03;34.84
22938;BME280;11634;42.734;23.298;2023-02-21T15:30:32;95143.03;;;17.97;35.28
22938;BME280;11634;42.734;23.298;2023-02-21T15:33:07;95150.22;;;17.89;35.41
22938;BME280;11634;42.734;23.298;2023-02-21T15:35:42;95141.75;;;17.79;35.29
22938;BME280;11634;42.734;23.298;2023-02-21T15:38:42;95145.56;;;17.76;35.23
22938;BME280;11634;42.734;23.298;2023-02-21T15:41:29;95152.53;;;17.69;35.43
22938;BME280;11634;42.734;23.298;2023-02-21T15:46:53;95155.84;;;17.49;36.37